sensor_id;sensor_type;location;lat;lon;timestamp;temperature;humidity
23869;DHT22;12115;47.128;15.422;2022-10-22T00:00:08;11.20;99.90
23869;DHT22;12115;47.128;15.422;2022-10-22T00:02:36;11.10;99.90
23869;DHT22;12115;47.128;15.422;2022-10-22T00:05:03;11.10;99.90
23869;DHT22;12115;47.128;15.422;2022-10-22T00:07:31;11.10;99.90
23869;DHT22;12115;47.128;15.422;2022-10-22T00:09:58;11.10;99.90
23869;DHT22;12115;47.128;15.422;2022-10-22T00:12:25;11.10;99.90
23869;DHT22;12115;47.128;15.422;2022-10-22T00:14:52;11.10;99.90
23869;DHT22;12115;47.128;15.422;2022-10-22T00:17:19;11.00;99.90
23869;DHT22;12115;47.128;15.422;2022-10-22T00:19:47;11.00;99.90
23869;DHT22;12115;47.128;15.422;2022-10-22T00:22:14;11.00;99.90
23869;DHT22;12115;47.128;15.422;2022-10-22T00:24:41;10.90;99.90
23869;DHT22;12115;47.128;15.422;2022-10-22T00:27:10;10.90;99.90
23869;DHT22;12115;47.128;15.422;2022-10-22T00:29:37;11.00;99.90
23869;DHT22;12115;47.128;15.422;2022-10-22T00:32:04;11.00;99.90
23869;DHT22;12115;47.128;15.422;2022-10-22T00:34:32;11.00;99.90
23869;DHT22;12115;47.128;15.422;2022-10-22T00:36:59;11.00;99.90
23869;DHT22;12115;47.128;15.422;2022-10-22T00:39:27;10.90;99.90
23869;DHT22;12115;47.128;15.422;2022-10-22T00:41:56;10.90;99.90
23869;DHT22;12115;47.128;15.422;2022-10-22T00:47:31;10.90;99.90
23869;DHT22;12115;47.128;15.422;2022-10-22T00:49:59;10.90;99.90
23869;DHT22;12115;47.128;15.422;2022-10-22T00:52:27;10.90;99.90
23869;DHT22;12115;47.128;15.422;2022-10-22T00:54:55;10.90;99.90
23869;DHT22;12115;47.128;15.422;2022-10-22T00:57:22;11.00;99.90
23869;DHT22;12115;47.128;15.422;2022-10-22T00:59:50;11.00;99.90
23869;DHT22;12115;47.128;15.422;2022-10-22T01:02:17;11.00;99.90
23869;DHT22;12115;47.128;15.422;2022-10-22T01:04:44;11.00;99.90
23869;DHT22;12115;47.128;15.422;2022-10-22T01:07:22;11.00;99.90
23869;DHT22;12115;47.128;15.422;2022-10-22T01:10:33;10.90;99.90
23869;DHT22;12115;47.128;15.422;2022-10-22T01:15:47;10.90;99.90
23869;DHT22;12115;47.128;15.422;2022-10-22T01:18:29;10.80;99.90
23869;DHT22;12115;47.128;15.422;2022-10-22T01:24:42;10.80;99.90
23869;DHT22;12115;47.128;15.422;2022-10-22T01:30:05;10.60;99.90
23869;DHT22;12115;47.128;15.422;2022-10-22T01:32:42;10.60;99.90
23869;DHT22;12115;47.128;15.422;2022-10-22T01:35:18;10.60;99.90
23869;DHT22;12115;47.128;15.422;2022-10-22T01:37:54;10.60;99.90
23869;DHT22;12115;47.128;15.422;2022-10-22T01:40:23;10.60;99.90
23869;DHT22;12115;47.128;15.422;2022-10-22T01:43:03;10.60;99.90
23869;DHT22;12115;47.128;15.422;2022-10-22T01:45:42;10.60;99.90
23869;DHT22;12115;47.128;15.422;2022-10-22T01:48:33;10.60;99.90
23869;DHT22;12115;47.128;15.422;2022-10-22T01:53:53;10.60;99.90
23869;DHT22;12115;47.128;15.422;2022-10-22T01:59:24;10.50;99.90
23869;DHT22;12115;47.128;15.422;2022-10-22T02:04:38;10.50;99.90
23869;DHT22;12115;47.128;15.422;2022-10-22T02:07:09;10.50;99.90
23869;DHT22;12115;47.128;15.422;2022-10-22T02:09:39;10.50;99.90
23869;DHT22;12115;47.128;15.422;2022-10-22T02:12:07;10.40;99.90
23869;DHT22;12115;47.128;15.422;2022-10-22T02:14:37;10.40;99.90
23869;DHT22;12115;47.128;15.422;2022-10-22T02:17:12;10.40;99.90
23869;DHT22;12115;47.128;15.422;2022-10-22T02:20:15;10.40;99.90
23869;DHT22;12115;47.128;15.422;2022-10-22T02:22:49;10.30;99.90
23869;DHT22;12115;47.128;15.422;2022-10-22T02:25:23;10.30;99.90
23869;DHT22;12115;47.128;15.422;2022-10-22T02:28:06;10.20;99.90
23869;DHT22;12115;47.128;15.422;2022-10-22T02:30:48;10.30;99.90
23869;DHT22;12115;47.128;15.422;2022-10-22T02:35:54;10.30;99.90
23869;DHT22;12115;47.128;15.422;2022-10-22T02:38:27;10.30;99.90
23869;DHT22;12115;47.128;15.422;2022-10-22T02:41:02;10.30;99.90
23869;DHT22;12115;47.128;15.422;2022-10-22T02:43:55;10.20;99.90
23869;DHT22;12115;47.128;15.422;2022-10-22T02:46:37;10.20;99.90
23869;DHT22;12115;47.128;15.422;2022-10-22T02:49:17;10.10;99.90
23869;DHT22;12115;47.128;15.422;2022-10-22T02:51:54;10.20;99.90
23869;DHT22;12115;47.128;15.422;2022-10-22T02:54:34;10.10;99.90
23869;DHT22;12115;47.128;15.422;2022-10-22T02:57:05;10.10;99.90
23869;DHT22;12115;47.128;15.422;2022-10-22T02:59:36;10.10;99.90
23869;DHT22;12115;47.128;15.422;2022-10-22T03:02:09;10.10;99.90
23869;DHT22;12115;47.128;15.422;2022-10-22T03:04:39;10.10;99.90
23869;DHT22;12115;47.128;15.422;2022-10-22T03:07:07;10.10;99.90
23869;DHT22;12115;47.128;15.422;2022-10-22T03:09:34;10.00;99.90
23869;DHT22;12115;47.128;15.422;2022-10-22T03:12:02;10.00;99.90
23869;DHT22;12115;47.128;15.422;2022-10-22T03:14:29;10.00;99.90
23869;DHT22;12115;47.128;15.422;2022-10-22T03:16:56;10.00;99.90
23869;DHT22;12115;47.128;15.422;2022-10-22T03:19:23;10.00;99.90
23869;DHT22;12115;47.128;15.422;2022-10-22T03:21:57;10.00;99.90
23869;DHT22;12115;47.128;15.422;2022-10-22T03:24:41;10.00;99.90
23869;DHT22;12115;47.128;15.422;2022-10-22T03:27:17;10.00;99.90
23869;DHT22;12115;47.128;15.422;2022-10-22T03:29:59;10.00;99.90
23869;DHT22;12115;47.128;15.422;2022-10-22T03:32:33;10.00;99.90
23869;DHT22;12115;47.128;15.422;2022-10-22T03:35:20;10.00;99.90
23869;DHT22;12115;47.128;15.422;2022-10-22T03:37:51;10.00;99.90
23869;DHT22;12115;47.128;15.422;2022-10-22T03:40:32;10.00;99.90
23869;DHT22;12115;47.128;15.422;2022-10-22T03:43:09;10.00;99.90
23869;DHT22;12115;47.128;15.422;2022-10-22T03:45:58;9.90;99.90
23869;DHT22;12115;47.128;15.422;2022-10-22T03:48:39;9.90;99.90
23869;DHT22;12115;47.128;15.422;2022-10-22T03:51:20;9.90;99.90
23869;DHT22;12115;47.128;15.422;2022-10-22T03:54:03;9.90;99.90
23869;DHT22;12115;47.128;15.422;2022-10-22T03:56:40;9.80;99.90
23869;DHT22;12115;47.128;15.422;2022-10-22T03:59:19;9.80;99.90
23869;DHT22;12115;47.128;15.422;2022-10-22T04:01:50;9.80;99.90
23869;DHT22;12115;47.128;15.422;2022-10-22T04:04:17;9.80;99.90
23869;DHT22;12115;47.128;15.422;2022-10-22T04:06:44;9.80;99.90
23869;DHT22;12115;47.128;15.422;2022-10-22T04:09:11;9.90;99.90
23869;DHT22;12115;47.128;15.422;2022-10-22T04:11:38;9.90;99.90
23869;DHT22;12115;47.128;15.422;2022-10-22T04:14:07;9.80;99.90
23869;DHT22;12115;47.128;15.422;2022-10-22T04:16:38;9.80;99.90
23869;DHT22;12115;47.128;15.422;2022-10-22T04:19:14;9.70;99.90
23869;DHT22;12115;47.128;15.422;2022-10-22T04:21:57;9.60;99.90
23869;DHT22;12115;47.128;15.422;2022-10-22T04:24:26;9.60;99.90
23869;DHT22;12115;47.128;15.422;2022-10-22T04:26:53;9.70;99.90
23869;DHT22;12115;47.128;15.422;2022-10-22T04:29:21;9.60;99.90
23869;DHT22;12115;47.128;15.422;2022-10-22T04:31:48;9.60;99.90
23869;DHT22;12115;47.128;15.422;2022-10-22T04:34:16;9.50;99.90
23869;DHT22;12115;47.128;15.422;2022-10-22T04:36:54;9.60;99.90
23869;DHT22;12115;47.128;15.422;2022-10-22T04:39:27;9.60;99.90
23869;DHT22;12115;47.128;15.422;2022-10-22T04:42:00;9.60;99.90
23869;DHT22;12115;47.128;15.422;2022-10-22T04:44:45;9.60;99.90
23869;DHT22;12115;47.128;15.422;2022-10-22T04:47:30;9.60;99.90
23869;DHT22;12115;47.128;15.422;2022-10-22T04:50:03;9.50;99.90
23869;DHT22;12115;47.128;15.422;2022-10-22T04:52:31;9.50;99.90
23869;DHT22;12115;47.128;15.422;2022-10-22T04:55:00;9.50;99.90
23869;DHT22;12115;47.128;15.422;2022-10-22T04:57:40;9.50;99.90
23869;DHT22;12115;47.128;15.422;2022-10-22T05:00:17;9.50;99.90
23869;DHT22;12115;47.128;15.422;2022-10-22T05:02:50;9.50;99.90
23869;DHT22;12115;47.128;15.422;2022-10-22T05:05:23;9.50;99.90
23869;DHT22;12115;47.128;15.422;2022-10-22T05:07:51;9.40;99.90
23869;DHT22;12115;47.128;15.422;2022-10-22T05:10:24;9.40;99.90
23869;DHT22;12115;47.128;15.422;2022-10-22T05:12:56;9.40;99.90
23869;DHT22;12115;47.128;15.422;2022-10-22T05:15:33;9.40;99.90
23869;DHT22;12115;47.128;15.422;2022-10-22T05:18:05;9.40;99.90
23869;DHT22;12115;47.128;15.422;2022-10-22T05:20:45;9.40;99.90
23869;DHT22;12115;47.128;15.422;2022-10-22T05:23:16;9.40;99.90
23869;DHT22;12115;47.128;15.422;2022-10-22T05:25:55;9.50;99.90
23869;DHT22;12115;47.128;15.422;2022-10-22T05:28:36;9.40;99.90
23869;DHT22;12115;47.128;15.422;2022-10-22T05:31:07;9.40;99.90
23869;DHT22;12115;47.128;15.422;2022-10-22T05:33:40;9.50;99.90
23869;DHT22;12115;47.128;15.422;2022-10-22T05:36:14;9.50;99.90
23869;DHT22;12115;47.128;15.422;2022-10-22T05:38:49;9.50;99.90
23869;DHT22;12115;47.128;15.422;2022-10-22T05:41:27;9.50;99.90
23869;DHT22;12115;47.128;15.422;2022-10-22T05:43:58;9.50;99.90
23869;DHT22;12115;47.128;15.422;2022-10-22T05:46:34;9.50;99.90
23869;DHT22;12115;47.128;15.422;2022-10-22T05:49:19;9.50;99.90
23869;DHT22;12115;47.128;15.422;2022-10-22T05:51:50;9.60;99.90
23869;DHT22;12115;47.128;15.422;2022-10-22T05:54:22;9.60;99.90
23869;DHT22;12115;47.128;15.422;2022-10-22T05:56:59;9.60;99.90
23869;DHT22;12115;47.128;15.422;2022-10-22T05:59:31;9.60;99.90
23869;DHT22;12115;47.128;15.422;2022-10-22T06:02:11;9.70;99.90
23869;DHT22;12115;47.128;15.422;2022-10-22T06:04:42;9.70;99.90
23869;DHT22;12115;47.128;15.422;2022-10-22T06:07:21;9.80;99.90
23869;DHT22;12115;47.128;15.422;2022-10-22T06:09:52;9.80;99.90
23869;DHT22;12115;47.128;15.422;2022-10-22T06:12:25;9.90;99.90
23869;DHT22;12115;47.128;15.422;2022-10-22T06:14:53;9.90;99.90
23869;DHT22;12115;47.128;15.422;2022-10-22T06:17:26;9.90;99.90
23869;DHT22;12115;47.128;15.422;2022-10-22T06:20:05;9.90;99.90
23869;DHT22;12115;47.128;15.422;2022-10-22T06:22:35;9.90;99.90
23869;DHT22;12115;47.128;15.422;2022-10-22T06:25:07;10.00;99.90
23869;DHT22;12115;47.128;15.422;2022-10-22T06:27:38;10.00;99.90
23869;DHT22;12115;47.128;15.422;2022-10-22T06:30:37;10.10;99.90
23869;DHT22;12115;47.128;15.422;2022-10-22T06:33:17;10.10;99.90
23869;DHT22;12115;47.128;15.422;2022-10-22T06:35:50;10.20;99.90
23869;DHT22;12115;47.128;15.422;2022-10-22T06:38:20;10.20;99.90
23869;DHT22;12115;47.128;15.422;2022-10-22T06:40:50;10.30;99.90
23869;DHT22;12115;47.128;15.422;2022-10-22T06:43:18;10.40;99.90
23869;DHT22;12115;47.128;15.422;2022-10-22T06:45:46;10.40;99.90
23869;DHT22;12115;47.128;15.422;2022-10-22T06:48:23;10.50;99.90
23869;DHT22;12115;47.128;15.422;2022-10-22T06:50:59;10.50;99.90
23869;DHT22;12115;47.128;15.422;2022-10-22T06:53:40;10.60;99.90
23869;DHT22;12115;47.128;15.422;2022-10-22T06:56:13;10.70;99.90
23869;DHT22;12115;47.128;15.422;2022-10-22T06:58:42;10.70;99.90
23869;DHT22;12115;47.128;15.422;2022-10-22T07:01:18;10.70;99.90
23869;DHT22;12115;47.128;15.422;2022-10-22T07:03:53;10.80;99.90
23869;DHT22;12115;47.128;15.422;2022-10-22T07:06:26;10.80;99.90
23869;DHT22;12115;47.128;15.422;2022-10-22T07:08:55;10.90;99.90
23869;DHT22;12115;47.128;15.422;2022-10-22T07:11:29;10.90;99.90
23869;DHT22;12115;47.128;15.422;2022-10-22T07:14:03;10.90;99.90
23869;DHT22;12115;47.128;15.422;2022-10-22T07:16:39;11.00;99.90
23869;DHT22;12115;47.128;15.422;2022-10-22T07:19:18;10.90;99.90
23869;DHT22;12115;47.128;15.422;2022-10-22T07:21:48;11.00;99.90
23869;DHT22;12115;47.128;15.422;2022-10-22T07:24:19;11.00;99.90
23869;DHT22;12115;47.128;15.422;2022-10-22T07:26:53;11.00;99.90
23869;DHT22;12115;47.128;15.422;2022-10-22T07:29:29;11.10;99.90
23869;DHT22;12115;47.128;15.422;2022-10-22T07:31:57;11.10;99.90
23869;DHT22;12115;47.128;15.422;2022-10-22T07:34:24;11.20;99.90
23869;DHT22;12115;47.128;15.422;2022-10-22T07:36:57;11.20;99.90
23869;DHT22;12115;47.128;15.422;2022-10-22T07:39:32;11.30;99.90
23869;DHT22;12115;47.128;15.422;2022-10-22T07:42:09;11.30;99.90
23869;DHT22;12115;47.128;15.422;2022-10-22T07:44:50;11.30;99.90
23869;DHT22;12115;47.128;15.422;2022-10-22T07:47:21;11.30;99.90
23869;DHT22;12115;47.128;15.422;2022-10-22T07:49:51;11.40;99.90
23869;DHT22;12115;47.128;15.422;2022-10-22T07:52:27;11.40;99.90
23869;DHT22;12115;47.128;15.422;2022-10-22T07:55:02;11.40;99.90
23869;DHT22;12115;47.128;15.422;2022-10-22T07:57:30;11.50;99.90
23869;DHT22;12115;47.128;15.422;2022-10-22T08:00:06;11.50;99.90
23869;DHT22;12115;47.128;15.422;2022-10-22T08:02:42;11.50;99.90
23869;DHT22;12115;47.128;15.422;2022-10-22T08:05:10;11.60;99.90
23869;DHT22;12115;47.128;15.422;2022-10-22T08:07:46;11.60;99.90
23869;DHT22;12115;47.128;15.422;2022-10-22T08:10:22;11.60;99.90
23869;DHT22;12115;47.128;15.422;2022-10-22T08:12:53;11.60;99.90
23869;DHT22;12115;47.128;15.422;2022-10-22T08:15:23;11.70;99.90
23869;DHT22;12115;47.128;15.422;2022-10-22T08:18:04;11.70;99.90
23869;DHT22;12115;47.128;15.422;2022-10-22T08:20:34;11.70;99.90
23869;DHT22;12115;47.128;15.422;2022-10-22T08:23:16;11.70;99.90
23869;DHT22;12115;47.128;15.422;2022-10-22T08:25:56;11.80;99.90
23869;DHT22;12115;47.128;15.422;2022-10-22T08:28:28;11.80;99.90
23869;DHT22;12115;47.128;15.422;2022-10-22T08:31:13;11.80;99.90
23869;DHT22;12115;47.128;15.422;2022-10-22T08:33:42;11.80;99.90
23869;DHT22;12115;47.128;15.422;2022-10-22T08:36:17;11.90;99.90
23869;DHT22;12115;47.128;15.422;2022-10-22T08:38:52;12.00;99.90
23869;DHT22;12115;47.128;15.422;2022-10-22T08:41:26;12.00;99.90
23869;DHT22;12115;47.128;15.422;2022-10-22T08:49:38;12.20;99.90
23869;DHT22;12115;47.128;15.422;2022-10-22T08:52:14;12.20;99.90
23869;DHT22;12115;47.128;15.422;2022-10-22T08:54:52;12.30;99.90
23869;DHT22;12115;47.128;15.422;2022-10-22T08:57:43;12.30;99.90
23869;DHT22;12115;47.128;15.422;2022-10-22T09:07:52;12.50;99.90
23869;DHT22;12115;47.128;15.422;2022-10-22T09:10:28;12.50;99.90
23869;DHT22;12115;47.128;15.422;2022-10-22T09:13:01;12.60;99.90
23869;DHT22;12115;47.128;15.422;2022-10-22T09:15:33;12.60;99.90
23869;DHT22;12115;47.128;15.422;2022-10-22T09:21:40;12.70;99.90
23869;DHT22;12115;47.128;15.422;2022-10-22T09:23:46;12.80;99.90
23869;DHT22;12115;47.128;15.422;2022-10-22T09:26:15;12.90;99.90
23869;DHT22;12115;47.128;15.422;2022-10-22T09:28:48;12.90;99.90
23869;DHT22;12115;47.128;15.422;2022-10-22T09:31:15;12.90;99.90
23869;DHT22;12115;47.128;15.422;2022-10-22T09:33:44;13.00;99.90
23869;DHT22;12115;47.128;15.422;2022-10-22T09:36:16;13.00;99.90
23869;DHT22;12115;47.128;15.422;2022-10-22T09:38:47;13.10;99.90
23869;DHT22;12115;47.128;15.422;2022-10-22T10:04:33;13.30;99.90
23869;DHT22;12115;47.128;15.422;2022-10-22T10:07:01;13.40;99.90
23869;DHT22;12115;47.128;15.422;2022-10-22T10:09:28;13.50;99.90
23869;DHT22;12115;47.128;15.422;2022-10-22T10:12:15;13.50;99.90
23869;DHT22;12115;47.128;15.422;2022-10-22T10:21:07;13.60;99.90
23869;DHT22;12115;47.128;15.422;2022-10-22T10:37:41;13.80;99.90
23869;DHT22;12115;47.128;15.422;2022-10-22T10:45:45;13.90;99.90
23869;DHT22;12115;47.128;15.422;2022-10-22T10:56:36;14.00;99.90
23869;DHT22;12115;47.128;15.422;2022-10-22T11:05:02;14.10;99.90
23869;DHT22;12115;47.128;15.422;2022-10-22T11:07:57;14.10;99.90
23869;DHT22;12115;47.128;15.422;2022-10-22T11:13:11;14.20;99.90
23869;DHT22;12115;47.128;15.422;2022-10-22T11:15:40;14.30;99.90
23869;DHT22;12115;47.128;15.422;2022-10-22T11:18:20;14.30;99.90
23869;DHT22;12115;47.128;15.422;2022-10-22T11:21:02;14.30;99.90
23869;DHT22;12115;47.128;15.422;2022-10-22T11:23:43;14.30;99.90
23869;DHT22;12115;47.128;15.422;2022-10-22T11:26:23;14.30;99.90
23869;DHT22;12115;47.128;15.422;2022-10-22T11:28:54;14.40;99.90
23869;DHT22;12115;47.128;15.422;2022-10-22T11:31:24;14.50;99.90
23869;DHT22;12115;47.128;15.422;2022-10-22T11:33:56;14.60;99.90
23869;DHT22;12115;47.128;15.422;2022-10-22T11:36:36;14.60;99.90
23869;DHT22;12115;47.128;15.422;2022-10-22T11:39:04;14.60;99.90
23869;DHT22;12115;47.128;15.422;2022-10-22T11:41:32;14.60;99.90
23869;DHT22;12115;47.128;15.422;2022-10-22T11:44:22;14.70;99.90
23869;DHT22;12115;47.128;15.422;2022-10-22T11:53:05;14.80;99.90
23869;DHT22;12115;47.128;15.422;2022-10-22T12:00:54;14.70;99.90
23869;DHT22;12115;47.128;15.422;2022-10-22T12:14:37;14.80;99.90
23869;DHT22;12115;47.128;15.422;2022-10-22T12:17:17;14.90;99.90
23869;DHT22;12115;47.128;15.422;2022-10-22T12:19:53;14.90;99.90
23869;DHT22;12115;47.128;15.422;2022-10-22T12:22:31;14.90;99.90
23869;DHT22;12115;47.128;15.422;2022-10-22T12:25:00;14.90;99.90
23869;DHT22;12115;47.128;15.422;2022-10-22T12:27:38;14.90;99.90
23869;DHT22;12115;47.128;15.422;2022-10-22T12:32:42;14.90;99.90
23869;DHT22;12115;47.128;15.422;2022-10-22T12:35:18;14.90;99.90
23869;DHT22;12115;47.128;15.422;2022-10-22T12:38:16;14.90;99.90
23869;DHT22;12115;47.128;15.422;2022-10-22T12:40:44;14.90;99.90
23869;DHT22;12115;47.128;15.422;2022-10-22T12:43:32;14.90;99.90
23869;DHT22;12115;47.128;15.422;2022-10-22T12:57:36;14.80;99.90
23869;DHT22;12115;47.128;15.422;2022-10-22T13:00:17;14.80;99.90
23869;DHT22;12115;47.128;15.422;2022-10-22T13:02:45;14.80;99.90
23869;DHT22;12115;47.128;15.422;2022-10-22T13:05:22;14.80;99.90
23869;DHT22;12115;47.128;15.422;2022-10-22T13:08:07;14.80;99.90
23869;DHT22;12115;47.128;15.422;2022-10-22T13:10:37;14.80;99.90
23869;DHT22;12115;47.128;15.422;2022-10-22T13:13:05;14.80;99.90
23869;DHT22;12115;47.128;15.422;2022-10-22T13:15:35;14.80;99.90
23869;DHT22;12115;47.128;15.422;2022-10-22T13:18:21;14.80;99.90
23869;DHT22;12115;47.128;15.422;2022-10-22T13:20:55;14.90;99.90
23869;DHT22;12115;47.128;15.422;2022-10-22T13:23:26;14.90;99.90
23869;DHT22;12115;47.128;15.422;2022-10-22T13:28:36;15.00;99.90
23869;DHT22;12115;47.128;15.422;2022-10-22T13:31:23;14.90;99.90
23869;DHT22;12115;47.128;15.422;2022-10-22T13:33:56;14.90;99.90
23869;DHT22;12115;47.128;15.422;2022-10-22T13:36:24;14.80;99.90
23869;DHT22;12115;47.128;15.422;2022-10-22T13:38:51;14.80;99.90
23869;DHT22;12115;47.128;15.422;2022-10-22T13:41:30;14.80;99.90
23869;DHT22;12115;47.128;15.422;2022-10-22T13:44:00;14.90;99.90
23869;DHT22;12115;47.128;15.422;2022-10-22T13:46:28;14.80;99.90
23869;DHT22;12115;47.128;15.422;2022-10-22T13:48:56;14.80;99.90
23869;DHT22;12115;47.128;15.422;2022-10-22T13:51:33;14.80;99.90
23869;DHT22;12115;47.128;15.422;2022-10-22T13:54:02;14.90;99.90
23869;DHT22;12115;47.128;15.422;2022-10-22T13:56:30;14.90;99.90
23869;DHT22;12115;47.128;15.422;2022-10-22T13:58:57;14.90;99.90
23869;DHT22;12115;47.128;15.422;2022-10-22T14:01:26;14.90;99.90
23869;DHT22;12115;47.128;15.422;2022-10-22T14:03:57;14.90;99.90
23869;DHT22;12115;47.128;15.422;2022-10-22T14:06:26;14.90;99.90
23869;DHT22;12115;47.128;15.422;2022-10-22T14:08:58;14.90;99.90
23869;DHT22;12115;47.128;15.422;2022-10-22T14:11:26;14.90;99.90
23869;DHT22;12115;47.128;15.422;2022-10-22T14:13:53;14.90;99.90
23869;DHT22;12115;47.128;15.422;2022-10-22T14:16:23;15.00;99.90
23869;DHT22;12115;47.128;15.422;2022-10-22T14:18:53;14.90;99.90
23869;DHT22;12115;47.128;15.422;2022-10-22T14:21:22;14.80;99.90
23869;DHT22;12115;47.128;15.422;2022-10-22T14:23:49;14.80;99.90
23869;DHT22;12115;47.128;15.422;2022-10-22T14:26:25;14.80;99.90
23869;DHT22;12115;47.128;15.422;2022-10-22T14:29:00;14.80;99.90
23869;DHT22;12115;47.128;15.422;2022-10-22T14:31:39;14.80;99.90
23869;DHT22;12115;47.128;15.422;2022-10-22T14:34:14;14.80;99.90
23869;DHT22;12115;47.128;15.422;2022-10-22T14:36:41;14.70;99.90
23869;DHT22;12115;47.128;15.422;2022-10-22T14:39:12;14.70;99.90
23869;DHT22;12115;47.128;15.422;2022-10-22T14:41:40;14.70;99.90
23869;DHT22;12115;47.128;15.422;2022-10-22T14:44:11;14.70;99.90
23869;DHT22;12115;47.128;15.422;2022-10-22T14:46:40;14.70;99.90
23869;DHT22;12115;47.128;15.422;2022-10-22T14:49:10;14.70;99.90
23869;DHT22;12115;47.128;15.422;2022-10-22T14:51:38;14.80;99.90
23869;DHT22;12115;47.128;15.422;2022-10-22T14:54:06;14.80;99.90
23869;DHT22;12115;47.128;15.422;2022-10-22T14:56:33;14.80;99.90
23869;DHT22;12115;47.128;15.422;2022-10-22T14:59:06;14.80;99.90
23869;DHT22;12115;47.128;15.422;2022-10-22T15:01:33;14.70;99.90
23869;DHT22;12115;47.128;15.422;2022-10-22T15:04:01;14.80;99.90
23869;DHT22;12115;47.128;15.422;2022-10-22T15:06:28;14.80;99.90
23869;DHT22;12115;47.128;15.422;2022-10-22T15:08:56;14.80;99.90
23869;DHT22;12115;47.128;15.422;2022-10-22T15:11:23;14.80;99.90
23869;DHT22;12115;47.128;15.422;2022-10-22T15:13:51;14.80;99.90
23869;DHT22;12115;47.128;15.422;2022-10-22T15:16:18;14.70;99.90
23869;DHT22;12115;47.128;15.422;2022-10-22T15:18:46;14.70;99.90
23869;DHT22;12115;47.128;15.422;2022-10-22T15:21:16;14.70;99.90
23869;DHT22;12115;47.128;15.422;2022-10-22T15:23:44;14.60;99.90
23869;DHT22;12115;47.128;15.422;2022-10-22T15:26:12;14.60;99.90
23869;DHT22;12115;47.128;15.422;2022-10-22T15:28:41;14.70;99.90
23869;DHT22;12115;47.128;15.422;2022-10-22T15:31:12;14.70;99.90
23869;DHT22;12115;47.128;15.422;2022-10-22T15:33:41;14.70;99.90
23869;DHT22;12115;47.128;15.422;2022-10-22T15:36:14;14.70;99.90
23869;DHT22;12115;47.128;15.422;2022-10-22T15:38:41;14.70;99.90
23869;DHT22;12115;47.128;15.422;2022-10-22T15:41:10;14.70;99.90
23869;DHT22;12115;47.128;15.422;2022-10-22T15:43:38;14.70;99.90
23869;DHT22;12115;47.128;15.422;2022-10-22T15:46:12;14.70;99.90
23869;DHT22;12115;47.128;15.422;2022-10-22T15:48:40;14.50;99.90
23869;DHT22;12115;47.128;15.422;2022-10-22T15:51:16;14.50;99.90
23869;DHT22;12115;47.128;15.422;2022-10-22T15:53:47;14.50;99.90
23869;DHT22;12115;47.128;15.422;2022-10-22T15:56:16;14.60;99.90
23869;DHT22;12115;47.128;15.422;2022-10-22T15:58:43;14.60;99.90
23869;DHT22;12115;47.128;15.422;2022-10-22T16:01:12;14.60;99.90
23869;DHT22;12115;47.128;15.422;2022-10-22T16:03:40;14.60;99.90
23869;DHT22;12115;47.128;15.422;2022-10-22T16:06:07;14.50;99.90
23869;DHT22;12115;47.128;15.422;2022-10-22T16:08:35;14.50;99.90
23869;DHT22;12115;47.128;15.422;2022-10-22T16:11:03;14.50;99.90
23869;DHT22;12115;47.128;15.422;2022-10-22T16:13:31;14.40;99.90
23869;DHT22;12115;47.128;15.422;2022-10-22T16:15:58;14.30;99.90
23869;DHT22;12115;47.128;15.422;2022-10-22T16:18:25;14.30;99.90
23869;DHT22;12115;47.128;15.422;2022-10-22T16:20:52;14.30;99.90
23869;DHT22;12115;47.128;15.422;2022-10-22T16:23:19;14.30;99.90
23869;DHT22;12115;47.128;15.422;2022-10-22T16:25:47;14.30;99.90
23869;DHT22;12115;47.128;15.422;2022-10-22T16:28:14;14.30;99.90
23869;DHT22;12115;47.128;15.422;2022-10-22T16:30:41;14.20;99.90
23869;DHT22;12115;47.128;15.422;2022-10-22T16:33:09;14.20;99.90
23869;DHT22;12115;47.128;15.422;2022-10-22T16:35:42;14.10;99.90
23869;DHT22;12115;47.128;15.422;2022-10-22T16:38:10;14.00;99.90
23869;DHT22;12115;47.128;15.422;2022-10-22T16:40:38;14.00;99.90
23869;DHT22;12115;47.128;15.422;2022-10-22T16:43:05;13.90;99.90
23869;DHT22;12115;47.128;15.422;2022-10-22T16:45:32;13.90;99.90
23869;DHT22;12115;47.128;15.422;2022-10-22T16:48:00;13.90;99.90
23869;DHT22;12115;47.128;15.422;2022-10-22T16:50:27;13.70;99.90
23869;DHT22;12115;47.128;15.422;2022-10-22T16:52:54;13.70;99.90
23869;DHT22;12115;47.128;15.422;2022-10-22T16:55:22;13.60;99.90
23869;DHT22;12115;47.128;15.422;2022-10-22T16:57:51;13.60;99.90
23869;DHT22;12115;47.128;15.422;2022-10-22T17:00:20;13.70;99.90
23869;DHT22;12115;47.128;15.422;2022-10-22T17:02:52;13.70;99.90
23869;DHT22;12115;47.128;15.422;2022-10-22T17:05:20;13.70;99.90
23869;DHT22;12115;47.128;15.422;2022-10-22T17:07:49;13.70;99.90
23869;DHT22;12115;47.128;15.422;2022-10-22T17:10:17;13.60;99.90
23869;DHT22;12115;47.128;15.422;2022-10-22T17:12:49;13.60;99.90
23869;DHT22;12115;47.128;15.422;2022-10-22T17:15:18;13.70;99.90
23869;DHT22;12115;47.128;15.422;2022-10-22T17:17:46;13.60;99.90
23869;DHT22;12115;47.128;15.422;2022-10-22T17:20:19;13.60;99.90
23869;DHT22;12115;47.128;15.422;2022-10-22T17:22:48;13.60;99.90
23869;DHT22;12115;47.128;15.422;2022-10-22T17:25:43;13.60;99.90
23869;DHT22;12115;47.128;15.422;2022-10-22T17:28:12;13.60;99.90
23869;DHT22;12115;47.128;15.422;2022-10-22T17:30:39;13.60;99.90
23869;DHT22;12115;47.128;15.422;2022-10-22T17:33:08;13.50;99.90
23869;DHT22;12115;47.128;15.422;2022-10-22T17:35:39;13.60;99.90
23869;DHT22;12115;47.128;15.422;2022-10-22T17:38:07;13.50;99.90
23869;DHT22;12115;47.128;15.422;2022-10-22T17:40:35;13.50;99.90
23869;DHT22;12115;47.128;15.422;2022-10-22T17:43:05;13.40;99.90
23869;DHT22;12115;47.128;15.422;2022-10-22T17:45:34;13.40;99.90
23869;DHT22;12115;47.128;15.422;2022-10-22T17:48:01;13.30;99.90
23869;DHT22;12115;47.128;15.422;2022-10-22T17:50:29;13.20;99.90
23869;DHT22;12115;47.128;15.422;2022-10-22T17:52:59;13.20;99.90
23869;DHT22;12115;47.128;15.422;2022-10-22T17:55:26;13.10;99.90
23869;DHT22;12115;47.128;15.422;2022-10-22T17:57:55;13.10;99.90
23869;DHT22;12115;47.128;15.422;2022-10-22T18:00:24;13.00;99.90
23869;DHT22;12115;47.128;15.422;2022-10-22T18:02:59;13.00;99.90
23869;DHT22;12115;47.128;15.422;2022-10-22T18:05:27;12.90;99.90
23869;DHT22;12115;47.128;15.422;2022-10-22T18:07:57;12.80;99.90
23869;DHT22;12115;47.128;15.422;2022-10-22T18:10:24;12.80;99.90
23869;DHT22;12115;47.128;15.422;2022-10-22T18:12:52;12.80;99.90
23869;DHT22;12115;47.128;15.422;2022-10-22T18:15:20;12.80;99.90